Ardmore, Pennsylvania
Current Conditions -  °F | °C
As of 8:35 AM on Wednesday 26 Nov 2014 (Local Time) from KLOM Reporting Station
Overcast Overcast  
Wind Chill: 36°   Ceiling: 1100
Heat Index: 39°   Visibility: 4mi
Dew Point: 37°   Wind: 5mph
Humidity: 93%   Direction: 40°NE
Pressure: 30.09"   Gusts: NA
Location:  40.01°N, 75.28°W
Report Text: KLOM 261335Z AUTO 04004KT 4SM BKN011 OVC020 04/03 A3009 RMK AO1 P0005
Loading
Personal Weather Stations






























Interactive Weather Map New forecast layout! Learn more

10-Day Weather Forecast

Advertisements
Track Severe Weather on mobile